Time;durP1;ratioP1;P1;durP2;ratioP2;P2;SDS_P1;SDS_P2;PMS_P1;PMS_P2;Temp;Humidity;BMP_temperature;BMP_pressure;BME280_temperature;BME280_humidity;BME280_pressure;Samples;Min_cycle;Max_cycle;Signal;HPM_P1;HPM_P2
2024/03/11 00:01:04;;;;;;;0.95;0.95;;;9.80;99.90;;;;;;5051191;28;20231;-86
2024/03/11 00:03:37;;;;;;;0.70;0.70;;;9.70;99.90;;;;;;5067796;28;20204;-83
2024/03/11 00:06:08;;;;;;;2.78;1.45;;;9.80;99.90;;;;;;5068820;28;20283;-86
2024/03/11 00:08:45;;;;;;;4.50;2.70;;;9.80;99.90;;;;;;5061671;28;20727;-86
2024/03/11 00:11:28;;;;;;;1.65;1.55;;;9.80;99.90;;;;;;5052242;28;20261;-86
2024/03/11 00:13:56;;;;;;;1.15;1.05;;;9.90;99.90;;;;;;5062702;28;20206;-89
2024/03/11 00:20:16;;;;;;;1.15;1.15;;;9.80;99.90;;;;;;5071290;28;20175;-85
2024/03/11 00:22:46;;;;;;;1.52;1.50;;;9.90;99.90;;;;;;5058699;28;20206;-83
2024/03/11 00:25:17;;;;;;;1.48;1.48;;;9.90;99.90;;;;;;5075714;28;20218;-84
2024/03/11 00:27:50;;;;;;;2.17;2.08;;;9.80;99.90;;;;;;5005755;28;20218;-87
2024/03/11 00:30:18;;;;;;;2.65;2.45;;;9.80;99.90;;;;;;5058625;28;20270;-88
2024/03/11 00:32:45;;;;;;;1.30;1.30;;;9.90;99.90;;;;;;5067011;28;20195;-87
2024/03/11 00:35:16;;;;;;;0.98;0.98;;;9.90;99.90;;;;;;5048189;28;20255;-86
2024/03/11 00:37:45;;;;;;;1.17;1.17;;;9.90;99.90;;;;;;5068482;28;20207;-89
2024/03/11 00:40:26;;;;;;;0.60;0.60;;;10.00;99.90;;;;;;5056542;28;20266;-87
2024/03/11 00:42:57;;;;;;;0.70;0.70;;;10.00;99.90;;;;;;5061858;28;20206;-84
2024/03/11 00:45:26;;;;;;;1.67;1.15;;;10.00;99.90;;;;;;5070186;28;20396;-84
2024/03/11 00:47:55;;;;;;;4.43;4.07;;;10.10;99.90;;;;;;5067682;28;20237;-86
2024/03/11 00:50:25;;;;;;;0.50;0.50;;;10.10;99.90;;;;;;5068037;28;20247;-88
2024/03/11 00:52:55;;;;;;;1.90;1.80;;;10.20;99.90;;;;;;5064529;28;20203;-89
2024/03/11 00:55:23;;;;;;;4.00;2.25;;;10.00;99.90;;;;;;5066855;28;20402;-84
2024/03/11 00:57:52;;;;;;;1.20;1.20;;;10.10;99.90;;;;;;5066837;28;20221;-87
2024/03/11 01:00:22;;;;;;;2.15;0.88;;;10.10;99.90;;;;;;5060440;28;20201;-91
2024/03/11 01:02:57;;;;;;;0.73;0.73;;;10.10;99.90;;;;;;5063742;28;20274;-87
2024/03/11 01:05:29;;;;;;;2.08;1.88;;;10.00;99.90;;;;;;5067941;28;20249;-88
2024/03/11 01:08:00;;;;;;;4.03;3.67;;;10.00;99.90;;;;;;5047140;28;20495;-84
2024/03/11 01:10:41;;;;;;;1.70;1.70;;;10.00;99.90;;;;;;5050579;28;20212;-85
2024/03/11 01:13:18;;;;;;;1.23;1.23;;;10.00;99.90;;;;;;5050641;28;20220;-90
2024/03/11 01:15:50;;;;;;;0.80;0.80;;;9.90;99.90;;;;;;5069012;28;20199;-88
2024/03/11 01:18:19;;;;;;;0.98;0.95;;;9.90;99.90;;;;;;5054668;28;20218;-86
2024/03/11 01:20:50;;;;;;;1.77;1.73;;;9.90;99.90;;;;;;5081115;28;20256;-89
2024/03/11 01:23:20;;;;;;;1.80;1.70;;;9.90;99.90;;;;;;5056387;28;20217;-87
2024/03/11 01:25:51;;;;;;;1.30;1.30;;;9.80;99.90;;;;;;5063353;28;20213;-84
2024/03/11 01:28:18;;;;;;;3.65;3.33;;;9.90;99.90;;;;;;5048079;28;20246;-87
2024/03/11 01:30:49;;;;;;;0.88;0.88;;;9.70;99.90;;;;;;5061596;28;20400;-82
2024/03/11 01:33:21;;;;;;;0.60;0.60;;;9.80;99.90;;;;;;5071086;28;20203;-88
2024/03/11 01:36:01;;;;;;;7.50;2.15;;;9.60;99.90;;;;;;5054356;28;20542;-86
2024/03/11 01:38:29;;;;;;;1.88;1.77;;;9.50;99.90;;;;;;5052656;28;20199;-89
2024/03/11 01:40:59;;;;;;;3.67;2.45;;;9.40;99.90;;;;;;5050141;28;20199;-86
2024/03/11 01:43:26;;;;;;;3.45;3.22;;;9.40;99.90;;;;;;5063412;28;20200;-87
2024/03/11 01:46:06;;;;;;;2.45;2.25;;;9.40;99.90;;;;;;5053221;28;20245;-85
2024/03/11 01:48:43;;;;;;;1.00;1.00;;;9.30;99.90;;;;;;5061667;28;20226;-87
2024/03/11 01:51:14;;;;;;;1.88;1.60;;;9.30;99.90;;;;;;5048462;28;20250;-88
2024/03/11 01:53:51;;;;;;;1.40;1.30;;;9.40;99.90;;;;;;5076766;28;20210;-91
2024/03/11 01:56:22;;;;;;;0.85;0.85;;;9.40;99.90;;;;;;5078296;28;20206;-88
2024/03/11 01:58:54;;;;;;;4.03;3.47;;;9.20;99.90;;;;;;5299297;22;20223;-87
2024/03/11 02:01:23;;;;;;;1.52;1.42;;;9.20;99.90;;;;;;5039535;28;20254;-86
2024/03/11 02:03:52;;;;;;;2.30;2.20;;;9.10;99.90;;;;;;5046655;28;20208;-86
2024/03/11 02:06:19;;;;;;;1.42;1.33;;;9.20;99.90;;;;;;5030070;28;20188;-84
2024/03/11 02:08:47;;;;;;;1.98;1.88;;;9.10;99.90;;;;;;5051916;28;20200;-85
2024/03/11 02:11:14;;;;;;;1.65;1.55;;;9.10;99.90;;;;;;5053600;28;20231;-90
2024/03/11 02:13:45;;;;;;;3.17;2.88;;;9.00;99.90;;;;;;5055437;28;20224;-87
2024/03/11 02:16:16;;;;;;;2.35;1.83;;;9.10;99.90;;;;;;5021369;28;20207;-86
2024/03/11 02:18:43;;;;;;;1.23;1.23;;;8.90;99.90;;;;;;5023508;28;20282;-88
2024/03/11 02:21:12;;;;;;;0.60;0.60;;;8.90;99.90;;;;;;5030599;28;20485;-91
2024/03/11 02:23:43;;;;;;;3.97;1.75;;;8.90;99.90;;;;;;5124193;22;20312;-87
2024/03/11 02:26:14;;;;;;;1.60;1.50;;;8.90;99.90;;;;;;5035333;28;20202;-86
2024/03/11 02:28:41;;;;;;;2.47;1.73;;;9.00;99.90;;;;;;5018856;28;20296;-86
2024/03/11 02:31:10;;;;;;;2.47;2.38;;;8.90;99.90;;;;;;5270421;22;20227;-88
2024/03/11 02:33:46;;;;;;;3.42;3.22;;;8.90;99.90;;;;;;5055830;28;20275;-82
2024/03/11 02:36:25;;;;;;;1.67;1.38;;;9.00;99.90;;;;;;5059355;28;20300;-88
2024/03/11 02:38:57;;;;;;;2.67;2.50;;;8.80;99.90;;;;;;5040181;28;20198;-86
2024/03/11 02:41:26;;;;;;;0.73;0.73;;;9.00;99.90;;;;;;5043854;28;20177;-85
2024/03/11 02:43:55;;;;;;;2.05;1.95;;;8.90;99.90;;;;;;5162156;22;20227;-93
2024/03/11 02:46:31;;;;;;;1.05;1.05;;;8.80;99.90;;;;;;5044435;28;20532;-90
2024/03/11 02:48:58;;;;;;;0.50;0.50;;;8.90;99.90;;;;;;5025290;28;20605;-85
2024/03/11 02:51:30;;;;;;;0.85;0.85;;;8.80;99.90;;;;;;5023525;28;20570;-85
2024/03/11 02:54:04;;;;;;;2.13;1.95;;;9.00;99.90;;;;;;5018855;28;20204;-89
2024/03/11 02:56:33;;;;;;;0.80;0.80;;;9.00;99.90;;;;;;5041269;28;20263;-85
2024/03/11 02:59:05;;;;;;;1.52;1.48;;;9.20;99.90;;;;;;5035310;28;20266;-89
2024/03/11 03:01:53;;;;;;;2.60;2.42;;;9.20;99.90;;;;;;5021259;28;20306;-87
2024/03/11 03:04:23;;;;;;;0.93;0.93;;;9.10;99.90;;;;;;5022454;28;20220;-84
2024/03/11 03:06:57;;;;;;;2.33;2.20;;;9.10;99.90;;;;;;5047378;28;20235;-86
2024/03/11 03:09:36;;;;;;;1.42;1.42;;;9.10;99.90;;;;;;5036658;28;20216;-83
2024/03/11 03:12:04;;;;;;;1.15;1.15;;;9.20;99.90;;;;;;5045262;28;20200;-87
2024/03/11 03:14:32;;;;;;;0.95;0.95;;;9.20;99.90;;;;;;5025848;28;20204;-89
2024/03/11 03:17:03;;;;;;;2.20;2.05;;;9.30;99.90;;;;;;5040732;28;20231;-88
2024/03/11 03:19:35;;;;;;;3.42;3.15;;;9.20;99.90;;;;;;5047503;28;20457;-88
2024/03/11 03:22:11;;;;;;;1.13;1.13;;;9.20;99.90;;;;;;5020805;28;20205;-88
2024/03/11 03:24:52;;;;;;;1.27;1.25;;;9.20;99.90;;;;;;5019475;28;20228;-84
2024/03/11 03:27:21;;;;;;;1.40;1.30;;;9.20;99.90;;;;;;5040002;28;20220;-84
2024/03/11 03:29:48;;;;;;;4.15;3.85;;;9.30;99.90;;;;;;5015349;28;20577;-87
2024/03/11 03:32:19;;;;;;;2.60;2.03;;;9.30;99.90;;;;;;5025604;28;20642;-83
2024/03/11 03:34:49;;;;;;;1.20;1.20;;;9.20;99.90;;;;;;5039679;28;20212;-86
2024/03/11 03:37:16;;;;;;;8.85;2.22;;;9.40;99.90;;;;;;5007279;28;20387;-84
2024/03/11 03:39:47;;;;;;;2.75;2.65;;;9.30;99.90;;;;;;5033665;28;20209;-88
2024/03/11 03:42:18;;;;;;;0.82;0.82;;;9.30;99.90;;;;;;5034395;28;20208;-84
2024/03/11 03:44:45;;;;;;;1.10;1.10;;;9.40;99.90;;;;;;5017041;28;20220;-86
2024/03/11 03:47:14;;;;;;;3.42;3.13;;;9.40;99.90;;;;;;5036995;28;20223;-86
2024/03/11 03:49:42;;;;;;;1.05;1.05;;;9.50;99.90;;;;;;5016524;28;20212;-87
2024/03/11 03:52:10;;;;;;;3.08;1.98;;;9.40;99.90;;;;;;5032373;28;20262;-90
2024/03/11 03:54:42;;;;;;;2.75;2.60;;;9.40;99.90;;;;;;5017621;28;20216;-89
2024/03/11 03:57:10;;;;;;;3.05;2.78;;;9.40;99.90;;;;;;5017187;28;20251;-87
2024/03/11 03:59:37;;;;;;;1.98;1.88;;;9.40;99.90;;;;;;5022521;28;20605;-87
2024/03/11 04:02:08;;;;;;;1.13;1.13;;;9.50;99.90;;;;;;5037890;28;20197;-85
2024/03/11 04:04:39;;;;;;;2.17;2.10;;;9.40;99.90;;;;;;5017786;28;20227;-90
2024/03/11 04:07:08;;;;;;;3.15;1.15;;;9.40;99.90;;;;;;5163511;23;20229;-91
2024/03/11 04:09:38;;;;;;;1.58;1.45;;;9.40;99.90;;;;;;5465126;23;20239;-87
2024/03/11 04:12:09;;;;;;;2.72;2.63;;;9.50;99.90;;;;;;5050074;28;20239;-83
2024/03/11 04:14:39;;;;;;;1.08;1.08;;;9.40;99.90;;;;;;5042133;28;20208;-88
2024/03/11 04:17:14;;;;;;;2.08;1.98;;;9.30;99.90;;;;;;5045731;28;20211;-86
2024/03/11 04:19:42;;;;;;;1.23;1.17;;;9.20;99.90;;;;;;5194090;22;20239;-84
2024/03/11 04:22:19;;;;;;;2.38;2.17;;;9.20;99.90;;;;;;5022620;28;20207;-85
2024/03/11 04:24:46;;;;;;;1.58;1.58;;;9.30;99.90;;;;;;5044340;28;20220;-86
2024/03/11 04:27:18;;;;;;;2.60;2.50;;;9.40;99.90;;;;;;5046826;28;20200;-89
2024/03/11 04:29:45;;;;;;;1.77;1.67;;;9.30;99.90;;;;;;5039998;28;20238;-87
2024/03/11 04:32:14;;;;;;;1.77;1.67;;;9.40;99.90;;;;;;5044417;28;20234;-89
2024/03/11 04:34:41;;;;;;;2.20;2.05;;;9.40;99.90;;;;;;5027487;28;20204;-85
2024/03/11 04:37:08;;;;;;;4.70;3.78;;;9.40;99.90;;;;;;5043682;28;20677;-88
2024/03/11 04:39:35;;;;;;;4.03;3.72;;;9.40;99.90;;;;;;5043228;28;20446;-85
2024/03/11 04:42:03;;;;;;;3.33;3.13;;;9.30;99.90;;;;;;5046950;28;20546;-86
2024/03/11 04:47:06;;;;;;;3.65;3.33;;;9.40;99.90;;;;;;5068073;22;20218;-86
2024/03/11 04:49:34;;;;;;;2.90;2.47;;;9.30;99.90;;;;;;5053983;28;20215;-86
2024/03/11 04:52:03;;;;;;;2.47;2.38;;;9.40;99.90;;;;;;5030116;28;20307;-90
2024/03/11 04:54:34;;;;;;;2.13;2.03;;;9.30;99.90;;;;;;5034867;28;20524;-89
2024/03/11 04:57:04;;;;;;;3.20;2.15;;;9.30;99.90;;;;;;5044589;28;20267;-87
2024/03/11 04:59:31;;;;;;;2.22;2.03;;;9.30;99.90;;;;;;5046750;28;20188;-88
2024/03/11 05:01:58;;;;;;;2.53;2.33;;;9.30;99.90;;;;;;5050022;28;20208;-86
2024/03/11 05:04:26;;;;;;;3.65;3.35;;;9.30;99.90;;;;;;5051138;28;20199;-84
2024/03/11 05:06:56;;;;;;;1.67;1.65;;;9.30;99.90;;;;;;5027725;28;20215;-87
2024/03/11 05:09:27;;;;;;;2.35;2.25;;;9.20;99.90;;;;;;5057529;28;20259;-90
2024/03/11 05:11:57;;;;;;;4.28;3.95;;;9.20;99.90;;;;;;5038062;28;20247;-86
2024/03/11 05:14:28;;;;;;;2.80;2.63;;;9.20;99.90;;;;;;5029911;28;20208;-86
2024/03/11 05:16:56;;;;;;;3.47;3.25;;;9.30;99.90;;;;;;5028906;28;20224;-85
2024/03/11 05:19:30;;;;;;;4.25;3.95;;;9.20;99.90;;;;;;5046578;28;20204;-87
2024/03/11 05:22:04;;;;;;;2.10;2.00;;;9.20;99.90;;;;;;5029162;28;20214;-89
2024/03/11 05:24:32;;;;;;;3.78;3.53;;;9.10;99.90;;;;;;5045384;28;20389;-85
2024/03/11 05:27:17;;;;;;;7.53;3.33;;;9.00;99.90;;;;;;5047475;28;20231;-86
2024/03/11 05:29:45;;;;;;;1.52;1.52;;;9.00;99.90;;;;;;5051964;28;20263;-87
2024/03/11 05:32:14;;;;;;;2.15;2.08;;;9.00;99.90;;;;;;5040214;28;20246;-87
2024/03/11 05:34:53;;;;;;;0.95;0.95;;;9.20;99.90;;;;;;5041470;28;20248;-86
2024/03/11 05:37:27;;;;;;;3.33;2.97;;;9.10;99.90;;;;;;5047065;28;20270;-85
2024/03/11 05:39:59;;;;;;;3.40;3.25;;;9.10;99.90;;;;;;5053141;28;20718;-85
2024/03/11 05:42:27;;;;;;;2.88;2.78;;;9.00;99.90;;;;;;5045372;28;20275;-85
2024/03/11 05:44:55;;;;;;;1.45;1.35;;;9.10;99.90;;;;;;5054085;28;20227;-85
2024/03/11 05:47:25;;;;;;;1.77;1.70;;;9.10;99.90;;;;;;5052354;28;20212;-83
2024/03/11 05:49:55;;;;;;;1.83;1.73;;;9.20;99.90;;;;;;5055554;28;20197;-84
2024/03/11 05:52:25;;;;;;;1.85;1.75;;;9.20;99.90;;;;;;5177926;22;20273;-83
2024/03/11 05:54:53;;;;;;;1.23;1.23;;;9.20;99.90;;;;;;5074057;28;20222;-89
2024/03/11 05:57:29;;;;;;;1.05;1.05;;;9.20;99.90;;;;;;5056662;28;20455;-82
2024/03/11 06:00:00;;;;;;;2.50;2.35;;;9.20;99.90;;;;;;5060528;28;20226;-86
2024/03/11 06:02:28;;;;;;;1.10;1.10;;;9.20;99.90;;;;;;5234088;22;20231;-86
2024/03/11 06:04:55;;;;;;;0.93;0.93;;;9.20;99.90;;;;;;5063739;28;20180;-84
2024/03/11 06:07:25;;;;;;;6.13;3.72;;;9.10;99.90;;;;;;5080200;28;20704;-84
2024/03/11 06:09:55;;;;;;;3.20;2.90;;;9.30;99.90;;;;;;5059637;28;20225;-85
2024/03/11 06:12:24;;;;;;;2.78;2.58;;;9.20;99.90;;;;;;5068856;28;20243;-85
2024/03/11 06:14:54;;;;;;;1.75;1.60;;;9.30;99.90;;;;;;5066872;28;20215;-86
2024/03/11 06:17:23;;;;;;;2.45;2.35;;;9.30;99.90;;;;;;5059944;28;20214;-85
2024/03/11 06:19:51;;;;;;;5.05;3.65;;;9.30;99.90;;;;;;5067035;23;20555;-84
2024/03/11 06:22:18;;;;;;;1.50;1.48;;;9.30;99.90;;;;;;5059974;28;20188;-86
2024/03/11 06:24:46;;;;;;;3.22;3.08;;;9.30;99.90;;;;;;5050150;28;20208;-88
2024/03/11 06:27:14;;;;;;;3.97;3.67;;;9.30;99.90;;;;;;5046542;28;20218;-83
2024/03/11 06:29:42;;;;;;;3.97;2.55;;;9.40;99.90;;;;;;5049078;28;20247;-89
2024/03/11 06:32:10;;;;;;;1.02;0.88;;;9.40;99.90;;;;;;5038395;28;20224;-90
2024/03/11 06:34:38;;;;;;;0.80;0.80;;;9.30;99.90;;;;;;5042700;28;20207;-86
2024/03/11 06:37:07;;;;;;;5.43;3.33;;;9.40;99.90;;;;;;5028273;28;20235;-89
2024/03/11 06:39:44;;;;;;;1.98;1.88;;;9.40;99.90;;;;;;5021490;28;20258;-85
2024/03/11 06:42:12;;;;;;;2.65;1.73;;;9.50;99.90;;;;;;5054762;28;20207;-88
2024/03/11 06:44:39;;;;;;;5.88;3.33;;;9.50;99.90;;;;;;5049081;28;20274;-86
2024/03/11 06:49:51;;;;;;;2.20;1.90;;;9.50;99.90;;;;;;5403284;22;20238;-87
2024/03/11 06:52:19;;;;;;;1.13;1.13;;;9.60;99.90;;;;;;5395046;22;20208;-88
2024/03/11 06:54:50;;;;;;;1.42;1.35;;;9.60;99.90;;;;;;5023272;28;20270;-88
2024/03/11 06:57:21;;;;;;;2.15;2.00;;;9.70;99.90;;;;;;5026917;28;20215;-90
2024/03/11 06:59:51;;;;;;;1.70;1.60;;;9.60;99.90;;;;;;5044023;28;20220;-86
2024/03/11 07:02:20;;;;;;;2.13;2.03;;;9.70;99.90;;;;;;5031004;28;20188;-89
2024/03/11 07:04:47;;;;;;;4.30;4.00;;;9.80;99.90;;;;;;5324795;22;20205;-87
2024/03/11 07:07:15;;;;;;;3.58;3.40;;;9.70;99.90;;;;;;5037730;28;20199;-89
2024/03/11 07:09:50;;;;;;;1.77;1.77;;;9.80;99.90;;;;;;5124832;23;20260;-89
2024/03/11 07:12:44;;;;;;;1.63;1.50;;;9.80;99.90;;;;;;5173827;27;20281;-89
2024/03/11 07:15:14;;;;;;;3.03;2.80;;;9.90;99.90;;;;;;5462622;22;20213;-88
2024/03/11 07:17:43;;;;;;;4.30;4.05;;;10.00;99.90;;;;;;5196923;22;20306;-86
2024/03/11 07:20:13;;;;;;;2.42;2.28;;;10.00;99.90;;;;;;5068538;28;20449;-88
2024/03/11 07:22:42;;;;;;;0.70;0.70;;;10.20;99.90;;;;;;5058851;28;20195;-91
2024/03/11 07:25:10;;;;;;;2.05;1.95;;;10.30;99.90;;;;;;5061796;28;20243;-89
2024/03/11 07:27:38;;;;;;;2.75;2.55;;;10.40;99.90;;;;;;5057486;28;20207;-89
2024/03/11 07:30:07;;;;;;;1.40;1.40;;;10.20;99.90;;;;;;5064720;28;20279;-88
2024/03/11 07:32:34;;;;;;;2.85;2.75;;;10.30;99.90;;;;;;5056382;28;20283;-87
2024/03/11 07:35:02;;;;;;;1.70;1.60;;;10.30;99.90;;;;;;5059059;28;20202;-89
2024/03/11 07:37:36;;;;;;;2.45;2.25;;;10.30;99.90;;;;;;5066936;28;20541;-90
2024/03/11 07:40:11;;;;;;;2.47;2.35;;;10.40;99.90;;;;;;5078261;28;20212;-89
2024/03/11 07:45:20;;;;;;;0.93;0.93;;;10.50;99.90;;;;;;5261147;22;20217;-85
2024/03/11 07:47:48;;;;;;;1.77;1.73;;;10.50;99.90;;;;;;5054765;28;20253;-90
2024/03/11 07:50:15;;;;;;;3.50;3.15;;;10.50;99.90;;;;;;5044667;28;20200;-89
2024/03/11 07:52:42;;;;;;;1.83;1.67;;;10.70;99.90;;;;;;5044545;28;20258;-90
2024/03/11 07:55:09;;;;;;;2.17;2.08;;;10.70;99.90;;;;;;5044003;28;20201;-89
2024/03/11 07:57:36;;;;;;;5.03;4.72;;;10.80;99.90;;;;;;5130393;23;20227;-87
2024/03/11 08:00:09;;;;;;;1.08;1.08;;;10.90;99.90;;;;;;4942866;28;20216;-89
2024/03/11 08:02:37;;;;;;;1.80;1.70;;;10.80;99.90;;;;;;4949668;28;20440;-92
2024/03/11 08:05:11;;;;;;;1.88;1.77;;;11.10;99.90;;;;;;4949474;29;20279;-88
2024/03/11 08:07:38;;;;;;;1.67;1.60;;;11.00;99.90;;;;;;4934673;28;20247;-88
2024/03/11 08:10:09;;;;;;;0.80;0.80;;;11.00;99.90;;;;;;4949585;28;20223;-91
2024/03/11 08:12:48;;;;;;;2.88;2.75;;;11.20;99.90;;;;;;4943057;28;20231;-88
2024/03/11 08:15:15;;;;;;;1.88;1.77;;;11.20;99.90;;;;;;4980377;28;20225;-90
2024/03/11 08:17:46;;;;;;;1.23;1.23;;;11.40;99.90;;;;;;5061340;23;20225;-87
2024/03/11 08:20:18;;;;;;;1.25;1.25;;;11.50;99.90;;;;;;5206137;23;20353;-89
2024/03/11 08:22:52;;;;;;;1.35;1.35;;;11.50;99.90;;;;;;4921990;28;20261;-91
2024/03/11 08:25:27;;;;;;;2.55;2.38;;;11.60;99.90;;;;;;4920344;28;20198;-86
2024/03/11 08:27:55;;;;;;;0.70;0.70;;;11.70;99.90;;;;;;4920366;28;20280;-89
2024/03/11 08:32:59;;;;;;;1.43;1.40;;;12.10;99.90;;;;;;5000198;28;20212;-87
2024/03/11 08:35:27;;;;;;;1.87;1.77;;;12.30;99.90;;;;;;4995533;28;20437;-91
2024/03/11 08:37:56;;;;;;;1.43;1.43;;;12.80;99.90;;;;;;4998427;28;20462;-88
2024/03/11 08:40:25;;;;;;;1.63;1.53;;;13.20;99.90;;;;;;4995980;28;20432;-89
2024/03/11 08:45:35;;;;;;;0.70;0.70;;;14.30;99.90;;;;;;5100862;23;20575;-88
2024/03/11 08:48:04;;;;;;;2.40;2.30;;;14.10;99.90;;;;;;4995293;28;20419;-91
2024/03/11 08:50:31;;;;;;;2.00;1.90;;;14.10;99.90;;;;;;5219142;23;21045;-87
2024/03/11 08:53:00;;;;;;;1.20;1.20;;;13.80;99.90;;;;;;4992745;28;20415;-88
2024/03/11 08:55:28;;;;;;;4.23;3.93;;;13.60;99.90;;;;;;4990701;28;20414;-90
2024/03/11 08:57:58;;;;;;;2.60;2.00;;;13.60;99.90;;;;;;4995803;28;20430;-88
2024/03/11 09:00:27;;;;;;;1.73;1.63;;;13.30;99.90;;;;;;4994175;28;20407;-90
2024/03/11 09:05:31;;;;;;;0.70;0.70;;;14.00;99.90;;;;;;5479619;23;20503;-89
2024/03/11 09:08:03;;;;;;;1.23;1.23;;;14.00;99.90;;;;;;4993528;28;20462;-85
2024/03/11 09:10:30;;;;;;;3.57;1.90;;;14.30;99.90;;;;;;4992701;28;20457;-89
2024/03/11 09:12:58;;;;;;;1.13;1.10;;;14.10;99.90;;;;;;4994447;28;20488;-88
2024/03/11 09:15:25;;;;;;;1.10;1.10;;;14.10;99.90;;;;;;4994773;28;20450;-87
2024/03/11 09:17:53;;;;;;;2.00;1.93;;;13.90;99.90;;;;;;4996737;28;20448;-88
2024/03/11 09:20:31;;;;;;;1.03;1.00;;;14.10;99.90;;;;;;4993951;28;20499;-89
2024/03/11 09:23:08;;;;;;;2.13;2.03;;;14.00;99.90;;;;;;4996525;28;20539;-88
2024/03/11 09:25:36;;;;;;;1.90;1.80;;;13.80;99.90;;;;;;5009182;28;20448;-92
2024/03/11 09:28:04;;;;;;;1.83;1.73;;;14.10;99.90;;;;;;4991759;28;20770;-92
2024/03/11 09:30:35;;;;;;;2.27;2.17;;;14.40;99.90;;;;;;4994316;28;20442;-89
2024/03/11 09:33:05;;;;;;;2.40;2.30;;;14.30;99.90;;;;;;4991005;28;20452;-89
2024/03/11 09:35:34;;;;;;;2.03;1.97;;;14.00;99.90;;;;;;4994362;28;20424;-90
2024/03/11 09:38:02;;;;;;;0.70;0.70;;;14.20;99.90;;;;;;4998166;28;20403;-88
2024/03/11 09:40:31;;;;;;;0.80;0.80;;;14.20;99.90;;;;;;4996939;28;20440;-89
2024/03/11 09:43:01;;;;;;;0.87;0.87;;;14.30;99.90;;;;;;4989716;28;20519;-91
2024/03/11 09:45:30;;;;;;;4.37;2.33;;;14.40;99.90;;;;;;4990591;28;20448;-88
2024/03/11 09:48:00;;;;;;;2.10;1.93;;;14.50;99.90;;;;;;4975373;28;20475;-89
2024/03/11 09:50:32;;;;;;;5.23;4.93;;;14.70;99.90;;;;;;4998912;28;20772;-90
2024/03/11 09:53:06;;;;;;;0.70;0.70;;;15.10;99.90;;;;;;4990098;28;21094;-88
2024/03/11 09:55:35;;;;;;;2.67;2.40;;;15.00;99.90;;;;;;5013626;23;21131;-86
2024/03/11 09:58:12;;;;;;;1.73;1.63;;;15.10;99.90;;;;;;5042079;23;20523;-87
2024/03/11 10:00:48;;;;;;;1.33;1.33;;;14.80;99.90;;;;;;4998325;28;20462;-88
2024/03/11 10:03:21;;;;;;;2.10;1.77;;;15.00;99.90;;;;;;4994107;28;20429;-90
2024/03/11 10:05:57;;;;;;;1.50;1.47;;;15.20;99.90;;;;;;4992820;28;20419;-90
2024/03/11 10:08:26;;;;;;;3.17;2.60;;;15.10;99.90;;;;;;4995431;28;20399;-86
2024/03/11 10:11:24;;;;;;;0.90;0.90;;;14.90;99.90;;;;;;5136571;23;20458;-87
2024/03/11 10:16:40;;;;;;;1.17;0.87;;;15.00;99.90;;;;;;4963791;28;20514;-89
2024/03/11 10:19:13;;;;;;;2.50;2.40;;;15.00;99.90;;;;;;4944060;29;20421;-90
2024/03/11 10:21:41;;;;;;;2.23;2.10;;;15.40;99.90;;;;;;4951916;29;20420;-92
2024/03/11 10:24:10;;;;;;;1.53;1.43;;;15.70;99.90;;;;;;4963197;29;20443;-88
2024/03/11 10:26:45;;;;;;;0.90;0.90;;;15.60;99.90;;;;;;4956957;29;20433;-91
2024/03/11 10:29:31;;;;;;;4.63;4.33;;;15.60;99.90;;;;;;4953942;29;20436;-89
2024/03/11 10:31:58;;;;;;;3.03;2.77;;;15.50;99.90;;;;;;4959391;29;20444;-89
2024/03/11 10:34:25;;;;;;;1.80;1.70;;;15.50;99.90;;;;;;4957991;29;20442;-88
2024/03/11 10:36:57;;;;;;;2.03;1.77;;;15.50;99.90;;;;;;4961295;29;20419;-88
2024/03/11 10:39:37;;;;;;;2.77;2.60;;;15.20;99.90;;;;;;4970248;29;20446;-90
2024/03/11 10:42:12;;;;;;;2.67;2.50;;;15.80;99.90;;;;;;4948042;29;20400;-88
2024/03/11 10:44:40;;;;;;;3.90;3.33;;;15.70;99.90;;;;;;4965115;28;20441;-89
2024/03/11 10:47:18;;;;;;;2.13;2.03;;;15.30;99.90;;;;;;5545211;23;20451;-89
2024/03/11 10:49:47;;;;;;;2.23;2.13;;;15.50;99.90;;;;;;4960849;28;20432;-91
2024/03/11 10:52:25;;;;;;;1.07;1.07;;;15.90;99.90;;;;;;4977829;28;20479;-87
2024/03/11 10:54:54;;;;;;;6.37;3.57;;;15.60;99.90;;;;;;4977006;28;20456;-90
2024/03/11 10:57:43;;;;;;;1.57;1.47;;;15.60;99.90;;;;;;4971644;29;20452;-87
2024/03/11 11:00:19;;;;;;;1.40;1.40;;;15.30;99.90;;;;;;4970640;29;20522;-88
2024/03/11 11:02:53;;;;;;;0.70;0.70;;;15.70;99.90;;;;;;4971229;29;20605;-90
2024/03/11 11:05:32;;;;;;;5.40;2.47;;;15.80;99.90;;;;;;4972011;28;20453;-86
2024/03/11 11:08:02;;;;;;;1.93;1.83;;;15.90;99.90;;;;;;4964216;28;20449;-88
2024/03/11 11:10:35;;;;;;;1.27;1.27;;;15.70;99.90;;;;;;4987767;28;20412;-91
2024/03/11 11:13:05;;;;;;;1.30;1.27;;;16.00;99.90;;;;;;4970777;28;20469;-90
2024/03/11 11:15:36;;;;;;;1.00;1.00;;;15.80;99.90;;;;;;4972187;28;20424;-87
2024/03/11 11:18:12;;;;;;;3.80;2.03;;;16.10;99.90;;;;;;4972722;28;20476;-86
2024/03/11 11:20:47;;;;;;;1.77;1.67;;;16.30;99.90;;;;;;4975159;28;20490;-89
2024/03/11 11:23:34;;;;;;;1.63;1.53;;;16.00;99.90;;;;;;4972369;28;20455;-87
2024/03/11 11:26:04;;;;;;;4.00;1.97;;;16.10;99.90;;;;;;4974676;28;20429;-86
2024/03/11 11:28:37;;;;;;;2.47;2.33;;;16.10;99.90;;;;;;5137797;23;20673;-88
2024/03/11 11:31:26;;;;;;;2.00;1.90;;;15.50;99.90;;;;;;4997326;28;20475;-87
2024/03/11 11:33:57;;;;;;;0.90;0.90;;;15.60;99.90;;;;;;5000505;28;20431;-90
2024/03/11 11:36:30;;;;;;;2.80;2.70;;;16.10;99.90;;;;;;5003956;28;20438;-89
2024/03/11 11:39:20;;;;;;;0.73;0.73;;;15.90;99.90;;;;;;4996978;28;20407;-90
2024/03/11 11:41:49;;;;;;;1.70;1.60;;;16.10;99.90;;;;;;4995098;28;20436;-88
2024/03/11 11:44:27;;;;;;;1.77;1.67;;;16.10;99.90;;;;;;4999388;28;20484;-88
2024/03/11 11:47:19;;;;;;;2.33;1.80;;;15.80;99.90;;;;;;4993766;28;20421;-88
2024/03/11 11:49:48;;;;;;;1.40;1.30;;;15.90;99.90;;;;;;4987126;28;20423;-89
2024/03/11 11:52:18;;;;;;;1.37;1.37;;;16.10;99.90;;;;;;4985578;28;20447;-87
2024/03/11 12:00:13;;;;;;;2.63;2.23;;;16.20;99.90;;;;;;4980890;28;20452;-87
2024/03/11 12:02:51;;;;;;;0.83;0.83;;;16.10;99.90;;;;;;4966364;28;20437;-91
2024/03/11 12:05:18;;;;;;;1.03;1.03;;;15.60;99.90;;;;;;4973756;28;20416;-91
2024/03/11 12:07:47;;;;;;;2.13;1.93;;;15.60;99.90;;;;;;4973413;28;20416;-92
2024/03/11 12:10:14;;;;;;;1.67;1.60;;;15.30;99.90;;;;;;4970658;28;20427;-88
2024/03/11 12:15:33;;;;;;;2.23;2.17;;;14.90;99.90;;;;;;4941461;29;20574;-90
2024/03/11 12:18:01;;;;;;;0.97;0.97;;;15.00;99.90;;;;;;4956897;29;20406;-87
2024/03/11 12:23:00;;;;;;;2.57;1.70;;;14.90;99.90;;;;;;4933931;29;20724;-90
2024/03/11 12:25:32;;;;;;;1.20;1.20;;;14.90;99.90;;;;;;4950539;29;20429;-90
2024/03/11 12:28:03;;;;;;;0.80;0.80;;;14.90;99.90;;;;;;4936011;29;20852;-90
2024/03/11 12:30:37;;;;;;;1.13;1.13;;;15.00;99.90;;;;;;4937957;29;20461;-90
2024/03/11 12:33:08;;;;;;;2.10;2.00;;;15.20;99.90;;;;;;4942136;29;20460;-89
2024/03/11 12:35:43;;;;;;;1.10;1.10;;;15.40;99.90;;;;;;4955206;29;20470;-89
2024/03/11 12:38:13;;;;;;;1.67;1.57;;;15.00;99.90;;;;;;4935880;29;20454;-89
2024/03/11 12:40:44;;;;;;;7.70;3.60;;;15.00;99.90;;;;;;4934878;29;20471;-89
2024/03/11 12:43:29;;;;;;;1.10;1.10;;;15.10;99.90;;;;;;4933049;29;20448;-89
2024/03/11 12:46:05;;;;;;;0.80;0.80;;;15.10;99.90;;;;;;4947399;29;20418;-88
2024/03/11 12:48:33;;;;;;;1.83;1.73;;;15.20;99.90;;;;;;4951681;29;20439;-88
2024/03/11 12:51:05;;;;;;;1.10;1.10;;;15.20;99.90;;;;;;4936270;29;20466;-90
2024/03/11 12:53:33;;;;;;;1.83;1.13;;;15.20;99.90;;;;;;4949125;29;20479;-89
2024/03/11 12:56:05;;;;;;;0.90;0.90;;;15.30;99.90;;;;;;4934629;29;20442;-88
2024/03/11 12:58:34;;;;;;;1.73;1.63;;;15.10;99.90;;;;;;4936925;28;20438;-90
2024/03/11 13:01:04;;;;;;;1.70;1.60;;;15.10;99.90;;;;;;4933358;29;20454;-91
2024/03/11 13:03:32;;;;;;;2.53;2.27;;;15.50;99.90;;;;;;4950164;29;20961;-91
2024/03/11 13:06:01;;;;;;;1.43;1.40;;;15.40;99.90;;;;;;4934038;29;20438;-91
2024/03/11 13:08:30;;;;;;;2.40;2.30;;;15.60;99.90;;;;;;4932494;29;20418;-91
2024/03/11 13:11:09;;;;;;;0.97;0.97;;;15.50;99.90;;;;;;4934018;29;20450;-88
2024/03/11 13:13:38;;;;;;;2.00;1.90;;;15.70;99.90;;;;;;4937336;29;20519;-86
2024/03/11 13:16:09;;;;;;;1.40;1.40;;;15.80;99.90;;;;;;4949563;29;20719;-90
2024/03/11 13:18:40;;;;;;;2.60;2.43;;;15.60;99.90;;;;;;4948495;29;20703;-88
2024/03/11 13:21:08;;;;;;;1.10;1.10;;;15.60;99.90;;;;;;4946311;29;20438;-88
2024/03/11 13:23:43;;;;;;;1.63;1.53;;;15.30;99.90;;;;;;4931759;29;20433;-87
2024/03/11 13:26:12;;;;;;;1.10;1.07;;;15.30;99.90;;;;;;4941731;29;20503;-89
2024/03/11 13:28:40;;;;;;;1.47;1.40;;;15.30;99.90;;;;;;4945871;29;20441;-88
2024/03/11 13:31:08;;;;;;;1.20;1.20;;;15.40;99.90;;;;;;4947473;29;20513;-88
2024/03/11 13:33:42;;;;;;;1.13;1.13;;;15.40;99.90;;;;;;4937791;29;20490;-86
2024/03/11 13:36:11;;;;;;;1.23;1.23;;;15.50;99.90;;;;;;4941216;28;20433;-88
2024/03/11 13:38:41;;;;;;;1.83;1.73;;;15.70;99.90;;;;;;4940026;28;20450;-89
2024/03/11 13:41:10;;;;;;;4.37;3.03;;;15.80;99.90;;;;;;4941017;29;20461;-89
2024/03/11 13:43:39;;;;;;;0.90;0.90;;;15.70;99.90;;;;;;4959719;28;20455;-89
2024/03/11 13:46:12;;;;;;;2.13;2.03;;;15.90;99.90;;;;;;4940963;28;20421;-87